sensor_id;sensor_type;location;lat;lon;timestamp;P1;durP1;ratioP1;P2;durP2;ratioP2
66487;SDS011;53304;54.550;18.526;2022-08-21T00:00:03;8.65;;;6.20;;
66487;SDS011;53304;54.550;18.526;2022-08-21T00:02:35;8.90;;;6.15;;
66487;SDS011;53304;54.550;18.526;2022-08-21T00:05:03;7.90;;;5.68;;
66487;SDS011;53304;54.550;18.526;2022-08-21T00:07:29;8.40;;;5.93;;
66487;SDS011;53304;54.550;18.526;2022-08-21T00:09:57;8.00;;;6.20;;
66487;SDS011;53304;54.550;18.526;2022-08-21T00:12:23;9.65;;;6.22;;
66487;SDS011;53304;54.550;18.526;2022-08-21T00:14:51;11.13;;;6.20;;
66487;SDS011;53304;54.550;18.526;2022-08-21T00:17:16;9.63;;;5.90;;
66487;SDS011;53304;54.550;18.526;2022-08-21T00:19:42;9.40;;;6.20;;
66487;SDS011;53304;54.550;18.526;2022-08-21T00:22:07;8.00;;;5.93;;
66487;SDS011;53304;54.550;18.526;2022-08-21T00:24:32;9.48;;;5.95;;
66487;SDS011;53304;54.550;18.526;2022-08-21T00:26:58;8.43;;;5.82;;
66487;SDS011;53304;54.550;18.526;2022-08-21T00:29:23;8.82;;;5.90;;
66487;SDS011;53304;54.550;18.526;2022-08-21T00:31:51;8.27;;;5.63;;
66487;SDS011;53304;54.550;18.526;2022-08-21T00:34:17;8.15;;;5.57;;
66487;SDS011;53304;54.550;18.526;2022-08-21T00:36:42;7.53;;;5.80;;
66487;SDS011;53304;54.550;18.526;2022-08-21T00:39:10;8.70;;;6.13;;
66487;SDS011;53304;54.550;18.526;2022-08-21T00:41:38;11.32;;;6.13;;
66487;SDS011;53304;54.550;18.526;2022-08-21T00:44:06;7.50;;;5.22;;
66487;SDS011;53304;54.550;18.526;2022-08-21T00:46:33;8.20;;;5.70;;
66487;SDS011;53304;54.550;18.526;2022-08-21T00:48:59;6.50;;;5.13;;
66487;SDS011;53304;54.550;18.526;2022-08-21T00:51:28;8.27;;;5.95;;
66487;SDS011;53304;54.550;18.526;2022-08-21T00:54:00;8.05;;;5.80;;
66487;SDS011;53304;54.550;18.526;2022-08-21T00:56:28;8.00;;;5.47;;
66487;SDS011;53304;54.550;18.526;2022-08-21T00:58:56;8.93;;;5.80;;
66487;SDS011;53304;54.550;18.526;2022-08-21T01:01:25;7.38;;;5.40;;
66487;SDS011;53304;54.550;18.526;2022-08-21T01:03:50;7.10;;;5.43;;
66487;SDS011;53304;54.550;18.526;2022-08-21T01:06:16;10.00;;;5.88;;
66487;SDS011;53304;54.550;18.526;2022-08-21T01:08:44;8.38;;;5.97;;
66487;SDS011;53304;54.550;18.526;2022-08-21T01:11:12;8.90;;;5.60;;
66487;SDS011;53304;54.550;18.526;2022-08-21T01:13:40;6.88;;;5.20;;
66487;SDS011;53304;54.550;18.526;2022-08-21T01:16:13;6.88;;;5.18;;
66487;SDS011;53304;54.550;18.526;2022-08-21T01:18:41;7.43;;;5.22;;
66487;SDS011;53304;54.550;18.526;2022-08-21T01:21:09;7.38;;;5.35;;
66487;SDS011;53304;54.550;18.526;2022-08-21T01:23:42;7.47;;;5.43;;
66487;SDS011;53304;54.550;18.526;2022-08-21T01:26:14;7.22;;;5.28;;
66487;SDS011;53304;54.550;18.526;2022-08-21T01:29:03;7.60;;;5.63;;
66487;SDS011;53304;54.550;18.526;2022-08-21T01:31:32;9.48;;;5.70;;
66487;SDS011;53304;54.550;18.526;2022-08-21T01:33:58;7.80;;;5.50;;
66487;SDS011;53304;54.550;18.526;2022-08-21T01:36:24;8.38;;;5.07;;
66487;SDS011;53304;54.550;18.526;2022-08-21T01:38:52;7.32;;;5.38;;
66487;SDS011;53304;54.550;18.526;2022-08-21T01:41:18;7.63;;;5.43;;
66487;SDS011;53304;54.550;18.526;2022-08-21T01:43:44;7.32;;;5.35;;
66487;SDS011;53304;54.550;18.526;2022-08-21T01:46:12;8.40;;;5.40;;
66487;SDS011;53304;54.550;18.526;2022-08-21T01:48:37;6.57;;;5.30;;
66487;SDS011;53304;54.550;18.526;2022-08-21T01:51:03;7.97;;;5.28;;
66487;SDS011;53304;54.550;18.526;2022-08-21T01:53:29;7.40;;;5.05;;
66487;SDS011;53304;54.550;18.526;2022-08-21T01:55:58;6.30;;;4.63;;
66487;SDS011;53304;54.550;18.526;2022-08-21T01:58:27;6.70;;;5.10;;
66487;SDS011;53304;54.550;18.526;2022-08-21T02:00:58;9.63;;;5.38;;
66487;SDS011;53304;54.550;18.526;2022-08-21T02:03:27;7.03;;;5.00;;
66487;SDS011;53304;54.550;18.526;2022-08-21T02:05:55;7.43;;;5.10;;
66487;SDS011;53304;54.550;18.526;2022-08-21T02:08:20;6.80;;;4.75;;
66487;SDS011;53304;54.550;18.526;2022-08-21T02:10:48;8.27;;;5.05;;
66487;SDS011;53304;54.550;18.526;2022-08-21T02:13:14;6.85;;;5.00;;
66487;SDS011;53304;54.550;18.526;2022-08-21T02:15:42;7.93;;;5.25;;
66487;SDS011;53304;54.550;18.526;2022-08-21T02:18:09;6.63;;;4.80;;
66487;SDS011;53304;54.550;18.526;2022-08-21T02:20:38;7.10;;;4.97;;
66487;SDS011;53304;54.550;18.526;2022-08-21T02:23:09;8.25;;;4.75;;
66487;SDS011;53304;54.550;18.526;2022-08-21T02:25:38;6.78;;;4.97;;
66487;SDS011;53304;54.550;18.526;2022-08-21T02:28:07;8.30;;;5.20;;
66487;SDS011;53304;54.550;18.526;2022-08-21T02:30:38;6.20;;;4.80;;
66487;SDS011;53304;54.550;18.526;2022-08-21T02:33:08;7.90;;;4.80;;
66487;SDS011;53304;54.550;18.526;2022-08-21T02:35:41;6.43;;;4.80;;
66487;SDS011;53304;54.550;18.526;2022-08-21T02:38:08;6.05;;;4.53;;
66487;SDS011;53304;54.550;18.526;2022-08-21T02:40:35;7.63;;;4.80;;
66487;SDS011;53304;54.550;18.526;2022-08-21T02:43:05;6.20;;;4.47;;
66487;SDS011;53304;54.550;18.526;2022-08-21T02:45:32;7.20;;;4.40;;
66487;SDS011;53304;54.550;18.526;2022-08-21T02:48:02;5.80;;;4.20;;
66487;SDS011;53304;54.550;18.526;2022-08-21T02:53:01;6.70;;;4.60;;
66487;SDS011;53304;54.550;18.526;2022-08-21T02:55:28;6.55;;;4.63;;
66487;SDS011;53304;54.550;18.526;2022-08-21T02:57:56;7.53;;;4.57;;
66487;SDS011;53304;54.550;18.526;2022-08-21T03:00:22;6.28;;;4.28;;
66487;SDS011;53304;54.550;18.526;2022-08-21T03:02:50;5.88;;;4.35;;
66487;SDS011;53304;54.550;18.526;2022-08-21T03:05:16;6.70;;;4.00;;
66487;SDS011;53304;54.550;18.526;2022-08-21T03:07:42;6.70;;;4.00;;
66487;SDS011;53304;54.550;18.526;2022-08-21T03:10:09;5.07;;;3.88;;
66487;SDS011;53304;54.550;18.526;2022-08-21T03:12:34;6.82;;;4.10;;
66487;SDS011;53304;54.550;18.526;2022-08-21T03:15:00;6.40;;;4.15;;
66487;SDS011;53304;54.550;18.526;2022-08-21T03:17:27;4.82;;;3.42;;
66487;SDS011;53304;54.550;18.526;2022-08-21T03:19:55;5.90;;;3.97;;
66487;SDS011;53304;54.550;18.526;2022-08-21T03:22:21;5.20;;;3.80;;
66487;SDS011;53304;54.550;18.526;2022-08-21T03:24:49;5.50;;;3.58;;
66487;SDS011;53304;54.550;18.526;2022-08-21T03:27:18;5.60;;;3.95;;
66487;SDS011;53304;54.550;18.526;2022-08-21T03:29:44;5.47;;;3.75;;
66487;SDS011;53304;54.550;18.526;2022-08-21T03:32:11;7.30;;;4.10;;
66487;SDS011;53304;54.550;18.526;2022-08-21T03:34:39;5.60;;;3.60;;
66487;SDS011;53304;54.550;18.526;2022-08-21T03:37:07;5.35;;;3.92;;
66487;SDS011;53304;54.550;18.526;2022-08-21T03:39:35;6.07;;;3.97;;
66487;SDS011;53304;54.550;18.526;2022-08-21T03:42:01;5.15;;;3.70;;
66487;SDS011;53304;54.550;18.526;2022-08-21T03:44:28;5.05;;;3.63;;
66487;SDS011;53304;54.550;18.526;2022-08-21T03:46:57;5.15;;;3.60;;
66487;SDS011;53304;54.550;18.526;2022-08-21T03:49:25;5.85;;;3.60;;
66487;SDS011;53304;54.550;18.526;2022-08-21T03:51:50;5.13;;;3.50;;
66487;SDS011;53304;54.550;18.526;2022-08-21T03:54:16;5.60;;;3.70;;
66487;SDS011;53304;54.550;18.526;2022-08-21T03:56:43;5.60;;;3.80;;
66487;SDS011;53304;54.550;18.526;2022-08-21T03:59:11;7.65;;;3.70;;
66487;SDS011;53304;54.550;18.526;2022-08-21T04:01:39;5.32;;;3.60;;
66487;SDS011;53304;54.550;18.526;2022-08-21T04:04:15;5.50;;;3.53;;
66487;SDS011;53304;54.550;18.526;2022-08-21T04:06:40;5.43;;;3.47;;
66487;SDS011;53304;54.550;18.526;2022-08-21T04:09:08;5.53;;;3.50;;
66487;SDS011;53304;54.550;18.526;2022-08-21T04:11:39;4.93;;;3.35;;
66487;SDS011;53304;54.550;18.526;2022-08-21T04:14:07;6.60;;;3.33;;
66487;SDS011;53304;54.550;18.526;2022-08-21T04:16:32;5.20;;;3.38;;
66487;SDS011;53304;54.550;18.526;2022-08-21T04:19:00;6.18;;;3.60;;
66487;SDS011;53304;54.550;18.526;2022-08-21T04:21:28;4.65;;;3.10;;
66487;SDS011;53304;54.550;18.526;2022-08-21T04:23:54;5.22;;;3.50;;
66487;SDS011;53304;54.550;18.526;2022-08-21T04:26:20;5.03;;;3.28;;
66487;SDS011;53304;54.550;18.526;2022-08-21T04:28:46;7.45;;;3.63;;
66487;SDS011;53304;54.550;18.526;2022-08-21T04:31:11;6.25;;;3.70;;
66487;SDS011;53304;54.550;18.526;2022-08-21T04:33:39;7.88;;;3.40;;
66487;SDS011;53304;54.550;18.526;2022-08-21T04:36:07;5.72;;;3.30;;
66487;SDS011;53304;54.550;18.526;2022-08-21T04:38:38;5.00;;;3.55;;
66487;SDS011;53304;54.550;18.526;2022-08-21T04:41:08;6.80;;;3.70;;
66487;SDS011;53304;54.550;18.526;2022-08-21T04:43:38;5.32;;;3.30;;
66487;SDS011;53304;54.550;18.526;2022-08-21T04:46:06;5.85;;;3.30;;
66487;SDS011;53304;54.550;18.526;2022-08-21T04:48:36;4.93;;;3.35;;
66487;SDS011;53304;54.550;18.526;2022-08-21T04:51:06;4.88;;;3.53;;
66487;SDS011;53304;54.550;18.526;2022-08-21T04:53:37;5.88;;;3.40;;
66487;SDS011;53304;54.550;18.526;2022-08-21T04:56:08;5.68;;;3.53;;
66487;SDS011;53304;54.550;18.526;2022-08-21T04:58:37;6.22;;;3.60;;
66487;SDS011;53304;54.550;18.526;2022-08-21T05:01:07;7.50;;;3.58;;
66487;SDS011;53304;54.550;18.526;2022-08-21T05:03:38;5.50;;;3.27;;
66487;SDS011;53304;54.550;18.526;2022-08-21T05:06:05;5.68;;;3.38;;
66487;SDS011;53304;54.550;18.526;2022-08-21T05:08:32;5.97;;;3.67;;
66487;SDS011;53304;54.550;18.526;2022-08-21T05:10:57;5.45;;;3.25;;
66487;SDS011;53304;54.550;18.526;2022-08-21T05:13:25;8.00;;;3.60;;
66487;SDS011;53304;54.550;18.526;2022-08-21T05:15:50;7.43;;;3.28;;
66487;SDS011;53304;54.550;18.526;2022-08-21T05:18:16;5.93;;;3.60;;
66487;SDS011;53304;54.550;18.526;2022-08-21T05:20:44;9.18;;;3.40;;
66487;SDS011;53304;54.550;18.526;2022-08-21T05:23:11;6.28;;;3.10;;
66487;SDS011;53304;54.550;18.526;2022-08-21T05:25:39;8.70;;;3.20;;
66487;SDS011;53304;54.550;18.526;2022-08-21T05:28:07;6.10;;;3.20;;
66487;SDS011;53304;54.550;18.526;2022-08-21T05:30:33;6.88;;;3.10;;
66487;SDS011;53304;54.550;18.526;2022-08-21T05:33:02;7.97;;;3.50;;
66487;SDS011;53304;54.550;18.526;2022-08-21T05:35:29;6.40;;;3.08;;
66487;SDS011;53304;54.550;18.526;2022-08-21T05:37:59;7.22;;;3.20;;
66487;SDS011;53304;54.550;18.526;2022-08-21T05:40:25;6.60;;;3.30;;
66487;SDS011;53304;54.550;18.526;2022-08-21T05:42:51;7.63;;;3.40;;
66487;SDS011;53304;54.550;18.526;2022-08-21T05:45:20;7.82;;;3.08;;
66487;SDS011;53304;54.550;18.526;2022-08-21T05:47:54;5.53;;;3.03;;
66487;SDS011;53304;54.550;18.526;2022-08-21T05:50:24;8.68;;;3.35;;
66487;SDS011;53304;54.550;18.526;2022-08-21T05:52:54;5.00;;;3.10;;
66487;SDS011;53304;54.550;18.526;2022-08-21T05:55:20;7.40;;;3.10;;
66487;SDS011;53304;54.550;18.526;2022-08-21T05:57:47;6.57;;;3.30;;
66487;SDS011;53304;54.550;18.526;2022-08-21T06:00:13;6.40;;;3.00;;
66487;SDS011;53304;54.550;18.526;2022-08-21T06:02:39;5.13;;;3.08;;
66487;SDS011;53304;54.550;18.526;2022-08-21T06:05:05;5.90;;;3.08;;
66487;SDS011;53304;54.550;18.526;2022-08-21T06:07:31;5.53;;;3.17;;
66487;SDS011;53304;54.550;18.526;2022-08-21T06:09:56;14.90;;;3.95;;
66487;SDS011;53304;54.550;18.526;2022-08-21T06:12:22;9.63;;;3.90;;
66487;SDS011;53304;54.550;18.526;2022-08-21T06:14:52;10.00;;;3.90;;
66487;SDS011;53304;54.550;18.526;2022-08-21T06:17:17;13.52;;;4.32;;
66487;SDS011;53304;54.550;18.526;2022-08-21T06:19:43;6.05;;;3.92;;
66487;SDS011;53304;54.550;18.526;2022-08-21T06:22:09;6.47;;;4.15;;
66487;SDS011;53304;54.550;18.526;2022-08-21T06:24:36;6.88;;;3.83;;
66487;SDS011;53304;54.550;18.526;2022-08-21T06:27:05;6.68;;;4.00;;
66487;SDS011;53304;54.550;18.526;2022-08-21T06:29:31;7.50;;;4.40;;
66487;SDS011;53304;54.550;18.526;2022-08-21T06:31:57;7.03;;;4.72;;
66487;SDS011;53304;54.550;18.526;2022-08-21T06:34:22;6.72;;;4.22;;
66487;SDS011;53304;54.550;18.526;2022-08-21T06:36:50;7.20;;;4.40;;
66487;SDS011;53304;54.550;18.526;2022-08-21T06:39:17;5.75;;;3.90;;
66487;SDS011;53304;54.550;18.526;2022-08-21T06:41:43;6.85;;;3.88;;
66487;SDS011;53304;54.550;18.526;2022-08-21T06:44:11;6.15;;;3.75;;
66487;SDS011;53304;54.550;18.526;2022-08-21T06:46:39;6.50;;;3.63;;
66487;SDS011;53304;54.550;18.526;2022-08-21T06:49:04;7.20;;;4.20;;
66487;SDS011;53304;54.550;18.526;2022-08-21T06:51:31;5.97;;;4.03;;
66487;SDS011;53304;54.550;18.526;2022-08-21T06:53:57;5.75;;;3.80;;
66487;SDS011;53304;54.550;18.526;2022-08-21T06:56:24;6.38;;;3.92;;
66487;SDS011;53304;54.550;18.526;2022-08-21T06:58:50;6.50;;;3.78;;
66487;SDS011;53304;54.550;18.526;2022-08-21T07:01:15;6.88;;;3.30;;
66487;SDS011;53304;54.550;18.526;2022-08-21T07:03:49;5.75;;;3.70;;
66487;SDS011;53304;54.550;18.526;2022-08-21T07:06:17;5.75;;;3.88;;
66487;SDS011;53304;54.550;18.526;2022-08-21T07:08:44;6.28;;;4.15;;
66487;SDS011;53304;54.550;18.526;2022-08-21T07:11:20;6.25;;;3.85;;
66487;SDS011;53304;54.550;18.526;2022-08-21T07:13:50;6.43;;;3.42;;
66487;SDS011;53304;54.550;18.526;2022-08-21T07:16:23;5.88;;;3.83;;
66487;SDS011;53304;54.550;18.526;2022-08-21T07:18:49;5.00;;;3.70;;
66487;SDS011;53304;54.550;18.526;2022-08-21T07:21:16;6.65;;;3.80;;
66487;SDS011;53304;54.550;18.526;2022-08-21T07:23:47;6.47;;;3.72;;
66487;SDS011;53304;54.550;18.526;2022-08-21T07:26:15;6.75;;;3.60;;
66487;SDS011;53304;54.550;18.526;2022-08-21T07:28:44;6.50;;;3.42;;
66487;SDS011;53304;54.550;18.526;2022-08-21T07:31:10;6.75;;;3.83;;
66487;SDS011;53304;54.550;18.526;2022-08-21T07:33:38;6.90;;;3.38;;
66487;SDS011;53304;54.550;18.526;2022-08-21T07:36:04;5.60;;;3.30;;
66487;SDS011;53304;54.550;18.526;2022-08-21T07:38:33;6.13;;;3.40;;
66487;SDS011;53304;54.550;18.526;2022-08-21T07:41:01;7.22;;;3.67;;
66487;SDS011;53304;54.550;18.526;2022-08-21T07:43:27;7.57;;;3.67;;
66487;SDS011;53304;54.550;18.526;2022-08-21T07:45:53;7.43;;;3.30;;
66487;SDS011;53304;54.550;18.526;2022-08-21T07:48:19;7.97;;;3.22;;
66487;SDS011;53304;54.550;18.526;2022-08-21T07:50:48;6.13;;;3.10;;
66487;SDS011;53304;54.550;18.526;2022-08-21T07:53:16;6.05;;;3.40;;
66487;SDS011;53304;54.550;18.526;2022-08-21T07:55:42;5.40;;;3.13;;
66487;SDS011;53304;54.550;18.526;2022-08-21T07:58:07;6.25;;;3.25;;
66487;SDS011;53304;54.550;18.526;2022-08-21T08:00:33;6.70;;;3.40;;
66487;SDS011;53304;54.550;18.526;2022-08-21T08:03:02;5.55;;;3.05;;
66487;SDS011;53304;54.550;18.526;2022-08-21T08:05:30;6.00;;;3.00;;
66487;SDS011;53304;54.550;18.526;2022-08-21T08:08:01;6.03;;;3.35;;
66487;SDS011;53304;54.550;18.526;2022-08-21T08:10:26;8.63;;;3.28;;
66487;SDS011;53304;54.550;18.526;2022-08-21T08:12:56;5.38;;;2.83;;
66487;SDS011;53304;54.550;18.526;2022-08-21T08:15:25;5.25;;;2.78;;
66487;SDS011;53304;54.550;18.526;2022-08-21T08:17:51;5.47;;;3.25;;
66487;SDS011;53304;54.550;18.526;2022-08-21T08:20:17;5.72;;;3.10;;
66487;SDS011;53304;54.550;18.526;2022-08-21T08:22:43;4.90;;;3.10;;
66487;SDS011;53304;54.550;18.526;2022-08-21T08:25:10;6.18;;;3.15;;
66487;SDS011;53304;54.550;18.526;2022-08-21T08:27:37;6.97;;;3.17;;
66487;SDS011;53304;54.550;18.526;2022-08-21T08:30:03;5.75;;;3.05;;
66487;SDS011;53304;54.550;18.526;2022-08-21T08:32:30;6.80;;;3.10;;
66487;SDS011;53304;54.550;18.526;2022-08-21T08:34:55;5.90;;;3.20;;
66487;SDS011;53304;54.550;18.526;2022-08-21T08:37:23;6.15;;;3.10;;
66487;SDS011;53304;54.550;18.526;2022-08-21T08:39:48;5.05;;;3.30;;
66487;SDS011;53304;54.550;18.526;2022-08-21T08:42:23;7.25;;;3.10;;
66487;SDS011;53304;54.550;18.526;2022-08-21T08:44:55;6.95;;;3.60;;
66487;SDS011;53304;54.550;18.526;2022-08-21T08:47:30;8.13;;;3.40;;
66487;SDS011;53304;54.550;18.526;2022-08-21T08:50:04;5.53;;;3.25;;
66487;SDS011;53304;54.550;18.526;2022-08-21T08:52:40;7.75;;;3.53;;
66487;SDS011;53304;54.550;18.526;2022-08-21T08:55:17;6.35;;;3.45;;
66487;SDS011;53304;54.550;18.526;2022-08-21T08:57:50;5.05;;;2.88;;
66487;SDS011;53304;54.550;18.526;2022-08-21T09:00:18;5.68;;;3.00;;
66487;SDS011;53304;54.550;18.526;2022-08-21T09:02:45;5.47;;;3.17;;
66487;SDS011;53304;54.550;18.526;2022-08-21T09:05:46;5.40;;;3.05;;
66487;SDS011;53304;54.550;18.526;2022-08-21T09:25:21;7.10;;;3.10;;
66487;SDS011;53304;54.550;18.526;2022-08-21T09:27:47;6.65;;;2.88;;
66487;SDS011;53304;54.550;18.526;2022-08-21T09:30:16;5.97;;;2.72;;
66487;SDS011;53304;54.550;18.526;2022-08-21T09:32:42;5.95;;;3.10;;
66487;SDS011;53304;54.550;18.526;2022-08-21T09:38:04;6.32;;;3.20;;
66487;SDS011;53304;54.550;18.526;2022-08-21T09:43:02;4.95;;;2.60;;
66487;SDS011;53304;54.550;18.526;2022-08-21T09:45:32;5.78;;;3.10;;
66487;SDS011;53304;54.550;18.526;2022-08-21T09:48:12;8.48;;;3.40;;
66487;SDS011;53304;54.550;18.526;2022-08-21T09:50:38;5.55;;;2.78;;
66487;SDS011;53304;54.550;18.526;2022-08-21T09:53:03;5.82;;;2.80;;
66487;SDS011;53304;54.550;18.526;2022-08-21T09:55:34;6.40;;;2.90;;
66487;SDS011;53304;54.550;18.526;2022-08-21T09:58:29;6.35;;;3.20;;
66487;SDS011;53304;54.550;18.526;2022-08-21T10:00:59;6.47;;;2.70;;
66487;SDS011;53304;54.550;18.526;2022-08-21T10:03:26;5.20;;;2.80;;
66487;SDS011;53304;54.550;18.526;2022-08-21T10:05:53;4.35;;;2.72;;
66487;SDS011;53304;54.550;18.526;2022-08-21T10:08:22;6.47;;;2.95;;
66487;SDS011;53304;54.550;18.526;2022-08-21T10:10:54;5.90;;;2.80;;
66487;SDS011;53304;54.550;18.526;2022-08-21T10:13:25;5.28;;;2.90;;
66487;SDS011;53304;54.550;18.526;2022-08-21T10:21:55;5.88;;;3.00;;
66487;SDS011;53304;54.550;18.526;2022-08-21T10:27:28;6.18;;;2.63;;
66487;SDS011;53304;54.550;18.526;2022-08-21T10:30:06;5.57;;;2.88;;
66487;SDS011;53304;54.550;18.526;2022-08-21T10:40:33;4.43;;;2.42;;
66487;SDS011;53304;54.550;18.526;2022-08-21T10:48:19;5.97;;;2.88;;
66487;SDS011;53304;54.550;18.526;2022-08-21T10:54:17;7.33;;;2.37;;
66487;SDS011;53304;54.550;18.526;2022-08-21T10:56:47;4.28;;;2.20;;
66487;SDS011;53304;54.550;18.526;2022-08-21T10:59:28;6.13;;;2.47;;
66487;SDS011;53304;54.550;18.526;2022-08-21T11:02:01;4.63;;;2.30;;
66487;SDS011;53304;54.550;18.526;2022-08-21T11:04:38;5.93;;;2.33;;
66487;SDS011;53304;54.550;18.526;2022-08-21T11:07:35;7.60;;;2.42;;
66487;SDS011;53304;54.550;18.526;2022-08-21T11:10:30;5.07;;;2.10;;
66487;SDS011;53304;54.550;18.526;2022-08-21T11:12:59;5.82;;;2.35;;
66487;SDS011;53304;54.550;18.526;2022-08-21T11:18:28;4.35;;;2.20;;
66487;SDS011;53304;54.550;18.526;2022-08-21T11:23:37;5.43;;;2.38;;
66487;SDS011;53304;54.550;18.526;2022-08-21T11:26:17;4.90;;;2.20;;
66487;SDS011;53304;54.550;18.526;2022-08-21T11:28:52;5.22;;;2.50;;
66487;SDS011;53304;54.550;18.526;2022-08-21T11:37:04;7.25;;;2.03;;
66487;SDS011;53304;54.550;18.526;2022-08-21T11:42:20;4.72;;;2.10;;
66487;SDS011;53304;54.550;18.526;2022-08-21T12:02:34;6.32;;;2.15;;
66487;SDS011;53304;54.550;18.526;2022-08-21T12:05:04;7.07;;;2.30;;
66487;SDS011;53304;54.550;18.526;2022-08-21T12:07:33;5.55;;;2.20;;
66487;SDS011;53304;54.550;18.526;2022-08-21T12:10:05;5.25;;;2.05;;
66487;SDS011;53304;54.550;18.526;2022-08-21T12:17:54;4.55;;;1.90;;
66487;SDS011;53304;54.550;18.526;2022-08-21T12:20:35;4.60;;;1.77;;
66487;SDS011;53304;54.550;18.526;2022-08-21T12:25:39;7.57;;;1.92;;
66487;SDS011;53304;54.550;18.526;2022-08-21T12:28:11;5.95;;;1.77;;
66487;SDS011;53304;54.550;18.526;2022-08-21T12:30:39;8.60;;;2.10;;
66487;SDS011;53304;54.550;18.526;2022-08-21T12:35:47;6.43;;;2.17;;
66487;SDS011;53304;54.550;18.526;2022-08-21T12:38:23;5.35;;;1.80;;
66487;SDS011;53304;54.550;18.526;2022-08-21T12:41:19;7.57;;;2.08;;
66487;SDS011;53304;54.550;18.526;2022-08-21T12:43:48;4.80;;;1.70;;
66487;SDS011;53304;54.550;18.526;2022-08-21T12:46:30;5.80;;;2.05;;
66487;SDS011;53304;54.550;18.526;2022-08-21T12:49:02;4.95;;;2.00;;
66487;SDS011;53304;54.550;18.526;2022-08-21T12:52:19;7.23;;;2.07;;
66487;SDS011;53304;54.550;18.526;2022-08-21T12:54:30;7.07;;;2.35;;
66487;SDS011;53304;54.550;18.526;2022-08-21T12:57:01;6.32;;;1.80;;
66487;SDS011;53304;54.550;18.526;2022-08-21T12:59:32;7.10;;;2.08;;
66487;SDS011;53304;54.550;18.526;2022-08-21T13:02:03;7.88;;;1.90;;
66487;SDS011;53304;54.550;18.526;2022-08-21T13:04:38;7.53;;;1.85;;
66487;SDS011;53304;54.550;18.526;2022-08-21T13:07:08;6.77;;;2.33;;
66487;SDS011;53304;54.550;18.526;2022-08-21T13:09:40;6.35;;;2.05;;
66487;SDS011;53304;54.550;18.526;2022-08-21T13:12:09;8.07;;;2.20;;
66487;SDS011;53304;54.550;18.526;2022-08-21T13:14:36;7.47;;;2.00;;
66487;SDS011;53304;54.550;18.526;2022-08-21T13:17:07;6.40;;;1.98;;
66487;SDS011;53304;54.550;18.526;2022-08-21T13:19:33;7.22;;;1.92;;
66487;SDS011;53304;54.550;18.526;2022-08-21T13:22:01;9.15;;;2.08;;
66487;SDS011;53304;54.550;18.526;2022-08-21T13:24:33;7.10;;;1.95;;
66487;SDS011;53304;54.550;18.526;2022-08-21T13:26:59;5.07;;;2.00;;
66487;SDS011;53304;54.550;18.526;2022-08-21T13:29:30;6.03;;;1.95;;
66487;SDS011;53304;54.550;18.526;2022-08-21T13:31:57;12.27;;;2.30;;
66487;SDS011;53304;54.550;18.526;2022-08-21T13:34:35;8.07;;;2.10;;
66487;SDS011;53304;54.550;18.526;2022-08-21T13:37:04;10.38;;;2.15;;
66487;SDS011;53304;54.550;18.526;2022-08-21T13:39:34;11.02;;;2.22;;
66487;SDS011;53304;54.550;18.526;2022-08-21T13:42:03;13.20;;;2.47;;
66487;SDS011;53304;54.550;18.526;2022-08-21T13:44:36;5.28;;;1.90;;
66487;SDS011;53304;54.550;18.526;2022-08-21T13:47:11;10.43;;;2.42;;
66487;SDS011;53304;54.550;18.526;2022-08-21T13:49:43;8.57;;;2.88;;
66487;SDS011;53304;54.550;18.526;2022-08-21T13:52:18;6.35;;;2.20;;
66487;SDS011;53304;54.550;18.526;2022-08-21T13:54:51;16.83;;;2.63;;
66487;SDS011;53304;54.550;18.526;2022-08-21T13:57:23;7.25;;;2.20;;
66487;SDS011;53304;54.550;18.526;2022-08-21T13:59:53;9.27;;;2.10;;
66487;SDS011;53304;54.550;18.526;2022-08-21T14:02:43;8.05;;;2.42;;
66487;SDS011;53304;54.550;18.526;2022-08-21T14:07:50;10.57;;;2.17;;
66487;SDS011;53304;54.550;18.526;2022-08-21T14:10:23;5.53;;;1.85;;
66487;SDS011;53304;54.550;18.526;2022-08-21T14:12:55;10.13;;;2.80;;
66487;SDS011;53304;54.550;18.526;2022-08-21T14:15:26;9.85;;;2.20;;
66487;SDS011;53304;54.550;18.526;2022-08-21T14:21:03;4.88;;;1.70;;
66487;SDS011;53304;54.550;18.526;2022-08-21T14:23:34;6.95;;;2.15;;
66487;SDS011;53304;54.550;18.526;2022-08-21T14:26:00;7.88;;;1.80;;
66487;SDS011;53304;54.550;18.526;2022-08-21T14:31:13;4.47;;;1.85;;
66487;SDS011;53304;54.550;18.526;2022-08-21T14:33:43;5.65;;;1.98;;
66487;SDS011;53304;54.550;18.526;2022-08-21T14:36:09;4.72;;;1.83;;
66487;SDS011;53304;54.550;18.526;2022-08-21T14:38:36;5.50;;;1.70;;
66487;SDS011;53304;54.550;18.526;2022-08-21T14:41:12;5.07;;;1.83;;
66487;SDS011;53304;54.550;18.526;2022-08-21T14:43:43;4.47;;;1.52;;
66487;SDS011;53304;54.550;18.526;2022-08-21T14:46:10;4.78;;;1.70;;
66487;SDS011;53304;54.550;18.526;2022-08-21T14:48:39;6.22;;;1.63;;
66487;SDS011;53304;54.550;18.526;2022-08-21T14:51:10;4.35;;;1.58;;
66487;SDS011;53304;54.550;18.526;2022-08-21T14:53:35;6.53;;;1.75;;
66487;SDS011;53304;54.550;18.526;2022-08-21T14:56:00;4.50;;;1.55;;
66487;SDS011;53304;54.550;18.526;2022-08-21T14:58:37;4.70;;;1.60;;
66487;SDS011;53304;54.550;18.526;2022-08-21T15:01:09;5.32;;;1.67;;
66487;SDS011;53304;54.550;18.526;2022-08-21T15:03:40;4.50;;;1.52;;
66487;SDS011;53304;54.550;18.526;2022-08-21T15:06:06;4.75;;;1.60;;
66487;SDS011;53304;54.550;18.526;2022-08-21T15:08:32;4.60;;;1.60;;
66487;SDS011;53304;54.550;18.526;2022-08-21T15:10:57;6.97;;;1.88;;
66487;SDS011;53304;54.550;18.526;2022-08-21T15:13:23;4.55;;;1.60;;
66487;SDS011;53304;54.550;18.526;2022-08-21T15:15:50;5.18;;;1.70;;
66487;SDS011;53304;54.550;18.526;2022-08-21T15:18:21;7.13;;;1.70;;
66487;SDS011;53304;54.550;18.526;2022-08-21T15:20:49;4.65;;;1.60;;
66487;SDS011;53304;54.550;18.526;2022-08-21T15:23:17;4.20;;;1.70;;
66487;SDS011;53304;54.550;18.526;2022-08-21T15:25:43;4.57;;;1.50;;
66487;SDS011;53304;54.550;18.526;2022-08-21T15:28:10;5.97;;;2.00;;
66487;SDS011;53304;54.550;18.526;2022-08-21T15:30:40;4.50;;;1.60;;
66487;SDS011;53304;54.550;18.526;2022-08-21T15:33:11;5.18;;;1.50;;
66487;SDS011;53304;54.550;18.526;2022-08-21T15:35:36;3.85;;;1.40;;
66487;SDS011;53304;54.550;18.526;2022-08-21T15:38:01;6.13;;;1.60;;
66487;SDS011;53304;54.550;18.526;2022-08-21T15:40:33;5.32;;;1.40;;
66487;SDS011;53304;54.550;18.526;2022-08-21T15:43:00;5.47;;;1.50;;
66487;SDS011;53304;54.550;18.526;2022-08-21T15:45:26;4.90;;;1.63;;
66487;SDS011;53304;54.550;18.526;2022-08-21T15:47:52;5.72;;;1.70;;
66487;SDS011;53304;54.550;18.526;2022-08-21T15:50:17;5.47;;;1.60;;
66487;SDS011;53304;54.550;18.526;2022-08-21T15:52:43;6.65;;;1.70;;
66487;SDS011;53304;54.550;18.526;2022-08-21T15:55:09;5.03;;;1.48;;
66487;SDS011;53304;54.550;18.526;2022-08-21T15:57:35;3.08;;;1.50;;
66487;SDS011;53304;54.550;18.526;2022-08-21T16:00:12;4.80;;;1.77;;
66487;SDS011;53304;54.550;18.526;2022-08-21T16:02:41;4.28;;;1.73;;
66487;SDS011;53304;54.550;18.526;2022-08-21T16:05:08;4.53;;;1.70;;
66487;SDS011;53304;54.550;18.526;2022-08-21T16:07:36;5.05;;;1.77;;
66487;SDS011;53304;54.550;18.526;2022-08-21T16:10:02;3.55;;;1.52;;
66487;SDS011;53304;54.550;18.526;2022-08-21T16:12:32;3.63;;;1.50;;
66487;SDS011;53304;54.550;18.526;2022-08-21T16:15:07;6.22;;;1.80;;
66487;SDS011;53304;54.550;18.526;2022-08-21T16:17:38;5.20;;;1.70;;
66487;SDS011;53304;54.550;18.526;2022-08-21T16:20:09;5.22;;;1.67;;
66487;SDS011;53304;54.550;18.526;2022-08-21T16:22:38;4.82;;;1.58;;
66487;SDS011;53304;54.550;18.526;2022-08-21T16:25:07;6.25;;;2.00;;